Pagrindinis puslapis
METAR-TAF:

METAR-TAF

Oro uostai :

Montego Bėjus, Jamaika

platuma: 18-30N, ilguma: 077-55W, Aukštis: 1 m

Dabartinis oras

Ataskaita buvo paskelbta 1 valandą ir 9 minutes, ne 00:00 UTC
Vėjas 6 kt iš Šiaurės Rytų
Temperatūra 28°C
Drėgmė 79%
Slėgis 1011 hPa
Matomumas 10 km arba daugiau
Mažai debesys ne aukštis 2400 ft

METAR: MKJS 100000Z 05006KT 9999 FEW024 28/24 Q1011

Laikas: 20:09 (01:09 UTC)

Prognozė

Ataskaita buvo paskelbta 1 valandą ir 54 minutes, ne 23:15 UTC
Prognozė galioja nuo 10 metu 00 UTC su 10 metu 24 UTC
Vėjas 5 kt iš Rytų
Matomumas 10 km arba daugiau
Mažai debesys ne aukštis 2400 ft
Tapsmas
nuo 10 metu 04 UTC su 10 metu 06 UTC
Vėjas 4 kt iš Pietų/Pietryčių
Tapsmas
nuo 10 metu 13 UTC su 10 metu 15 UTC
Vėjas 15 kt iš Šiaurės Rytų

TAF: MKJS 092315Z 1000/1024 09005KT 9999 FEW024 BECMG 1004/1006 16004KT BECMG 1013/1015 05015KT

Orai ataskaitas ir orų prognozės (METAR, TAF).

turimą stotys yra geltonos ir raudonos taškus žemėlapyje.

Perkelti pele per norėdami pamatyti stoties vardą.

Tada spustelėkite, norėdami matyti oro stebėjimo ir prognozės.

Norėdami pakeisti žemėlapį: spustelėkite ant žalios mygtukų su juodo kryžiaus žemyn,; žalią mygtuką su brūkšneliu, jei norite nutolinti; arba žalių rodyklių gretimoms žemėlapius.


METAR-TAF: